createdAt,value
2022-12-17T00:01:19.111Z,102204.06
2022-12-17T00:04:05.002Z,102199.69
2022-12-17T00:06:50.426Z,102161.91
2022-12-17T00:09:50.228Z,102119.06
2022-12-17T00:12:35.766Z,102191.13
2022-12-17T00:15:21.340Z,102145.63
2022-12-17T00:18:06.918Z,102189.31
2022-12-17T00:20:52.414Z,102187.50
2022-12-17T00:23:39.280Z,102116.25
2022-12-17T00:26:24.828Z,102191.88
2022-12-17T00:29:10.116Z,102184.94
2022-12-17T00:31:55.345Z,102160.19
2022-12-17T00:34:41.467Z,102155.91
2022-12-17T00:37:27.201Z,102184.25
2022-12-17T00:40:12.113Z,102205.59
2022-12-17T00:42:57.391Z,102209.94
2022-12-17T00:45:42.260Z,102208.34
2022-12-17T00:48:27.498Z,102206.75
2022-12-17T00:51:13.960Z,102202.44
2022-12-17T00:53:59.529Z,102225.69
2022-12-17T00:56:44.522Z,102223.13
2022-12-17T00:59:29.914Z,102160.78
2022-12-17T01:02:15.245Z,102227.53
2022-12-17T01:05:00.703Z,102150.41
2022-12-17T01:07:45.912Z,102208.88
2022-12-17T01:10:31.280Z,102233.75
2022-12-17T01:13:16.577Z,102243.25
2022-12-17T01:16:02.376Z,102196.81
2022-12-17T01:18:47.604Z,102238.91
2022-12-17T01:21:33.152Z,102212.41
2022-12-17T01:24:18.480Z,102247.59
2022-12-17T01:27:05.215Z,102233.94
2022-12-17T01:29:50.394Z,102239.00
2022-12-17T01:32:36.079Z,102229.59
2022-12-17T01:35:21.114Z,102229.56
2022-12-17T01:38:06.571Z,102241.66
2022-12-17T01:40:51.695Z,102239.94
2022-12-17T01:43:54.630Z,102262.22
2022-12-17T01:46:41.343Z,102248.44
2022-12-17T01:49:29.523Z,102264.81
2022-12-17T01:52:15.892Z,102245.28
2022-12-17T01:55:01.092Z,102283.81
2022-12-17T01:57:46.992Z,102276.06
2022-12-17T02:00:33.749Z,102230.56
2022-12-17T02:03:19.312Z,102261.53
2022-12-17T02:06:32.382Z,102290.75
2022-12-17T02:09:20.627Z,102283.78
2022-12-17T02:12:23.131Z,102279.56
2022-12-17T02:15:24.623Z,102281.19
2022-12-17T02:18:17.805Z,102289.91
2022-12-17T02:21:06.916Z,102272.75
2022-12-17T02:23:52.183Z,102286.47
2022-12-17T02:26:55.337Z,102250.22
2022-12-17T02:29:42.841Z,102269.13
2022-12-17T02:32:31.074Z,102239.94
2022-12-17T02:35:19.988Z,102142.28
2022-12-17T02:38:07.183Z,102274.38
2022-12-17T02:40:56.996Z,102258.88
2022-12-17T02:43:44.660Z,102293.28
2022-12-17T02:46:31.403Z,102284.59
2022-12-17T02:49:16.679Z,102224.56
2022-12-17T02:52:02.168Z,102274.19
2022-12-17T02:54:48.759Z,102256.13
2022-12-17T02:57:34.342Z,102237.03
2022-12-17T03:00:19.833Z,102268.88
2022-12-17T03:03:05.111Z,102274.03
2022-12-17T03:05:50.673Z,102256.75
2022-12-17T03:08:36.113Z,102280.78
2022-12-17T03:11:21.512Z,102275.50
2022-12-17T03:14:06.635Z,102276.63
2022-12-17T03:16:52.418Z,102255.22
2022-12-17T03:19:37.883Z,102283.66
2022-12-17T03:22:23.317Z,102212.44
2022-12-17T03:25:08.575Z,102264.72
2022-12-17T03:27:54.152Z,102280.31
2022-12-17T03:30:42.122Z,102291.31
2022-12-17T03:33:30.063Z,102274.28
2022-12-17T03:36:15.462Z,102269.19
2022-12-17T03:39:00.805Z,102276.97
2022-12-17T03:42:06.386Z,102283.75
2022-12-17T03:44:51.832Z,102287.28
2022-12-17T03:47:37.055Z,102285.47
2022-12-17T03:50:23.884Z,102241.66
2022-12-17T03:53:09.378Z,102277.78
2022-12-17T03:55:54.619Z,102214.28
2022-12-17T03:58:39.948Z,102288.84
2022-12-17T04:01:25.192Z,102293.19
2022-12-17T04:04:10.617Z,102315.56
2022-12-17T04:06:55.962Z,102311.50
2022-12-17T04:09:41.508Z,102276.00
2022-12-17T04:12:27.033Z,102325.78
2022-12-17T04:15:12.222Z,102315.50
2022-12-17T04:17:57.565Z,102282.00
2022-12-17T04:20:42.742Z,102308.91
2022-12-17T04:23:28.071Z,102307.09
2022-12-17T04:26:13.598Z,102295.03
2022-12-17T04:28:58.732Z,102303.84
2022-12-17T04:31:44.324Z,102302.84
2022-12-17T04:34:29.475Z,102319.31
2022-12-17T04:37:15.022Z,102327.16
2022-12-17T04:40:00.240Z,102325.47
2022-12-17T04:42:46.039Z,102329.69
2022-12-17T04:45:31.406Z,102339.09
2022-12-17T04:48:24.566Z,102344.31
2022-12-17T04:51:10.100Z,102295.09
2022-12-17T04:53:55.937Z,102353.66
2022-12-17T04:56:41.168Z,102335.44
2022-12-17T04:59:26.653Z,102324.31
2022-12-17T05:02:11.872Z,102332.00
2022-12-17T05:04:57.455Z,102321.72
2022-12-17T05:07:50.384Z,102311.56
2022-12-17T05:10:35.940Z,102350.19
2022-12-17T05:13:21.297Z,102327.75
2022-12-17T05:16:14.467Z,102314.06
2022-12-17T05:18:59.929Z,102323.38
2022-12-17T05:21:45.338Z,102192.69
2022-12-17T05:24:30.348Z,102293.13
2022-12-17T05:27:15.648Z,102310.44
2022-12-17T05:30:00.780Z,102337.13
2022-12-17T05:32:46.244Z,102343.09
2022-12-17T05:35:31.454Z,102335.34
2022-12-17T05:38:24.136Z,102313.91
2022-12-17T05:41:10.299Z,102339.66
2022-12-17T05:43:55.410Z,102319.97
2022-12-17T05:46:40.880Z,102331.13
2022-12-17T05:49:26.283Z,102344.81
2022-12-17T05:52:11.625Z,102316.31
2022-12-17T05:54:57.097Z,102339.59
2022-12-17T05:57:42.637Z,102331.75
2022-12-17T06:00:28.686Z,102336.00
2022-12-17T06:03:21.792Z,102310.22
2022-12-17T06:06:07.765Z,102330.78
2022-12-17T06:08:53.036Z,102335.03
2022-12-17T06:11:38.583Z,102254.38
2022-12-17T06:14:24.103Z,102329.91
2022-12-17T06:17:09.541Z,102270.66
2022-12-17T06:19:54.611Z,102275.03
2022-12-17T06:22:40.139Z,102224.19
2022-12-17T06:25:33.179Z,102313.38
2022-12-17T06:28:19.392Z,102318.56
2022-12-17T06:31:11.556Z,102333.19
2022-12-17T06:33:57.504Z,102344.41
2022-12-17T06:36:43.672Z,102305.72
2022-12-17T06:39:28.971Z,102346.16
2022-12-17T06:42:14.568Z,102340.34
2022-12-17T06:45:00.035Z,102369.66
2022-12-17T06:47:45.221Z,102334.53
2022-12-17T06:50:30.449Z,102359.94
2022-12-17T06:53:25.063Z,102351.91
2022-12-17T06:56:10.948Z,102368.63
2022-12-17T06:58:56.502Z,102321.97
2022-12-17T07:01:42.013Z,102350.19
2022-12-17T07:04:27.887Z,102387.25
2022-12-17T07:07:12.870Z,102380.63
2022-12-17T07:09:58.077Z,102354.31
2022-12-17T07:12:43.359Z,102375.75
2022-12-17T07:15:29.113Z,102393.69
2022-12-17T07:18:19.715Z,102325.78
2022-12-17T07:21:05.602Z,102390.50
2022-12-17T07:23:51.180Z,102269.53
2022-12-17T07:26:36.745Z,102315.06
2022-12-17T07:29:22.145Z,102402.72
2022-12-17T07:32:07.507Z,102411.44
2022-12-17T07:34:52.671Z,102384.78
2022-12-17T07:37:38.272Z,102418.50
2022-12-17T07:40:24.240Z,102444.59
2022-12-17T07:43:09.779Z,102447.19
2022-12-17T07:45:55.524Z,102413.72
2022-12-17T07:48:41.230Z,102429.94
2022-12-17T07:51:26.539Z,102427.41
2022-12-17T07:54:12.023Z,102457.63
2022-12-17T07:56:57.626Z,102430.75
2022-12-17T07:59:43.213Z,102419.91
2022-12-17T08:02:29.148Z,102442.22
2022-12-17T08:05:14.740Z,102424.25
2022-12-17T08:08:00.316Z,102450.91
2022-12-17T08:10:45.754Z,102415.91
2022-12-17T08:13:31.333Z,102381.66
2022-12-17T08:16:16.793Z,102440.25
2022-12-17T08:19:02.328Z,102460.03
2022-12-17T08:21:47.511Z,102471.31
2022-12-17T08:24:33.000Z,102466.22
2022-12-17T08:27:18.493Z,102450.72
2022-12-17T08:30:04.327Z,102469.69
2022-12-17T08:32:50.397Z,102481.88
2022-12-17T08:35:35.699Z,102489.63
2022-12-17T08:38:25.514Z,102496.34
2022-12-17T08:41:10.745Z,102446.47
2022-12-17T08:43:56.317Z,102461.13
2022-12-17T08:46:41.370Z,102501.53
2022-12-17T08:49:26.549Z,102477.44
2022-12-17T08:52:12.088Z,102459.44
2022-12-17T08:54:57.117Z,102502.53
2022-12-17T08:57:42.597Z,102509.41
2022-12-17T09:00:28.860Z,102472.31
2022-12-17T09:03:18.184Z,102511.03
2022-12-17T09:06:03.265Z,102489.53
2022-12-17T09:08:48.755Z,102509.06
2022-12-17T09:11:34.069Z,102494.13
2022-12-17T09:14:39.188Z,102517.09
2022-12-17T09:17:24.756Z,102494.66
2022-12-17T09:20:10.090Z,102498.72
2022-12-17T09:22:55.874Z,102498.38
2022-12-17T09:25:41.251Z,102488.56
2022-12-17T09:28:26.957Z,102446.97
2022-12-17T09:31:16.204Z,102483.69
2022-12-17T09:34:01.759Z,102510.22
2022-12-17T09:36:51.193Z,102493.16
2022-12-17T09:39:37.053Z,102519.09
2022-12-17T09:42:49.743Z,102531.41
2022-12-17T09:45:41.725Z,102498.28
2022-12-17T09:48:49.069Z,102522.22
2022-12-17T09:51:44.214Z,102531.94
2022-12-17T09:54:56.363Z,102534.72
2022-12-17T09:57:50.584Z,102523.41
2022-12-17T10:00:42.222Z,102532.84
2022-12-17T10:03:46.239Z,102546.00
2022-12-17T10:06:37.780Z,102518.38
2022-12-17T10:09:35.275Z,102525.03
2022-12-17T10:12:38.430Z,102513.00
2022-12-17T10:15:25.251Z,102543.97
2022-12-17T10:18:11.282Z,102540.47
2022-12-17T10:21:07.374Z,102544.81
2022-12-17T10:23:53.542Z,102474.22
2022-12-17T10:26:45.337Z,102549.06
2022-12-17T10:29:33.786Z,102552.50
2022-12-17T10:32:34.527Z,102556.00
2022-12-17T10:35:39.879Z,102557.75
2022-12-17T10:38:39.836Z,102514.50
2022-12-17T10:41:37.343Z,102547.19
2022-12-17T10:44:42.526Z,102553.25
2022-12-17T10:47:31.238Z,102538.59
2022-12-17T10:50:18.107Z,102501.47
2022-12-17T10:53:05.167Z,102549.47
2022-12-17T10:55:52.492Z,102471.31
2022-12-17T10:58:47.432Z,102546.94
2022-12-17T11:01:44.643Z,102538.13
2022-12-17T11:04:50.817Z,102502.19
2022-12-17T11:07:50.324Z,102515.78
2022-12-17T11:10:39.870Z,102533.94
2022-12-17T11:13:29.694Z,102421.34
2022-12-17T11:16:17.109Z,102551.63
2022-12-17T11:19:25.888Z,102482.50
2022-12-17T11:22:15.253Z,102551.38
2022-12-17T11:25:21.741Z,102542.84
2022-12-17T11:28:25.145Z,102555.78
2022-12-17T11:31:21.210Z,102544.47
2022-12-17T11:34:19.385Z,102527.22
2022-12-17T11:37:31.575Z,102544.56
2022-12-17T11:40:16.616Z,102548.16
2022-12-17T11:43:17.197Z,102537.63
2022-12-17T11:46:33.728Z,102549.75
2022-12-17T11:49:25.285Z,102547.22
2022-12-17T11:52:19.774Z,102550.56
2022-12-17T11:55:36.017Z,102551.44
2022-12-17T11:58:24.615Z,102546.13
2022-12-17T12:01:42.216Z,102541.81
2022-12-17T12:04:36.845Z,102538.91
2022-12-17T12:07:34.218Z,102536.50
2022-12-17T12:10:29.719Z,102522.78
2022-12-17T12:13:45.056Z,102520.00
2022-12-17T12:16:43.753Z,102507.91
2022-12-17T12:19:59.580Z,102529.59
2022-12-17T12:22:54.561Z,102518.56
2022-12-17T12:25:49.073Z,102524.00
2022-12-17T12:28:43.512Z,102535.59
2022-12-17T12:31:47.553Z,102543.44
2022-12-17T12:34:38.294Z,102513.34
2022-12-17T12:37:25.515Z,102540.03
2022-12-17T12:40:24.694Z,102514.25
2022-12-17T12:43:20.339Z,102534.97
2022-12-17T12:46:18.779Z,102529.69
2022-12-17T12:49:08.696Z,102509.19
2022-12-17T12:51:56.013Z,102528.97
2022-12-17T12:54:49.820Z,102481.53
2022-12-17T12:57:54.926Z,102524.59
2022-12-17T13:00:54.521Z,102521.72
2022-12-17T13:03:56.956Z,102506.00
2022-12-17T13:06:43.907Z,102490.53
2022-12-17T13:09:20.899Z,102517.00
2022-12-17T13:12:02.528Z,102522.22
2022-12-17T13:14:33.874Z,102438.94
2022-12-17T13:17:16.105Z,102528.47
2022-12-17T13:19:57.915Z,102532.03
2022-12-17T13:22:24.984Z,102529.34
2022-12-17T13:24:54.746Z,102483.50
2022-12-17T13:27:36.884Z,102528.25
2022-12-17T13:30:30.517Z,102504.19
2022-12-17T13:33:21.937Z,102506.56
2022-12-17T13:36:25.831Z,102530.53
2022-12-17T13:39:14.106Z,102525.50
2022-12-17T13:41:41.235Z,102487.53
2022-12-17T13:44:26.300Z,102521.06
2022-12-17T13:46:55.276Z,102504.84
2022-12-17T13:49:27.971Z,102516.97
2022-12-17T13:52:17.349Z,102527.25
2022-12-17T13:54:44.355Z,102522.22
2022-12-17T13:57:18.916Z,102501.63
2022-12-17T13:59:57.936Z,102527.41
2022-12-17T14:02:30.091Z,102534.31
2022-12-17T14:05:04.050Z,102512.66
2022-12-17T14:07:38.235Z,102482.91
2022-12-17T14:10:06.195Z,102529.69
2022-12-17T14:12:35.440Z,102507.53
2022-12-17T14:15:08.549Z,102517.84
2022-12-17T14:17:35.262Z,102533.44
2022-12-17T14:20:15.510Z,102540.72
2022-12-17T14:22:51.363Z,102550.34
2022-12-17T14:25:24.947Z,102532.06
2022-12-17T14:28:20.865Z,102535.00
2022-12-17T14:31:24.369Z,102554.88
2022-12-17T14:33:37.747Z,102552.31
2022-12-17T14:36:07.479Z,102551.59
2022-12-17T14:38:48.605Z,102550.97
2022-12-17T14:41:34.453Z,102546.69
2022-12-17T14:44:02.788Z,102546.81
2022-12-17T14:46:31.864Z,102483.28
2022-12-17T14:49:02.011Z,102560.75
2022-12-17T14:51:41.316Z,102571.19
2022-12-17T14:54:14.026Z,102577.25
2022-12-17T14:56:42.194Z,102579.72
2022-12-17T14:59:30.494Z,102578.88
2022-12-17T15:01:57.645Z,102542.00
2022-12-17T15:04:24.422Z,102558.41
2022-12-17T15:06:54.935Z,102562.63
2022-12-17T15:09:22.283Z,102550.75
2022-12-17T15:11:49.332Z,102562.91
2022-12-17T15:14:16.180Z,102539.72
2022-12-17T15:16:43.254Z,102568.00
2022-12-17T15:19:10.120Z,102577.63
2022-12-17T15:21:37.134Z,102567.47
2022-12-17T15:24:04.257Z,102548.56
2022-12-17T15:26:30.986Z,102592.56
2022-12-17T15:28:57.826Z,102482.72
2022-12-17T15:31:26.808Z,102544.47
2022-12-17T15:33:56.571Z,102572.84
2022-12-17T15:36:23.330Z,102546.88
2022-12-17T15:38:50.117Z,102586.38
2022-12-17T15:41:42.627Z,102582.84
2022-12-17T15:44:09.450Z,102593.22
2022-12-17T15:46:36.432Z,102610.59
2022-12-17T15:49:03.875Z,102575.19
2022-12-17T15:51:30.678Z,102570.00
2022-12-17T15:53:57.297Z,102586.47
2022-12-17T15:56:26.202Z,102610.72
2022-12-17T15:58:53.625Z,102565.91
2022-12-17T16:01:20.508Z,102556.31
2022-12-17T16:03:47.523Z,102614.97
2022-12-17T16:06:14.525Z,102591.75
2022-12-17T16:08:41.324Z,102610.81
2022-12-17T16:11:14.079Z,102593.47
2022-12-17T16:13:40.768Z,102584.91
2022-12-17T16:16:08.907Z,102621.13
2022-12-17T16:18:36.414Z,102577.31
2022-12-17T16:21:05.039Z,102616.16
2022-12-17T16:23:32.949Z,102618.63
2022-12-17T16:26:02.108Z,102611.94
2022-12-17T16:28:29.765Z,102636.44
2022-12-17T16:31:06.214Z,102638.31
2022-12-17T16:33:37.991Z,102617.75
2022-12-17T16:36:06.010Z,102634.25
2022-12-17T16:38:33.017Z,102613.50
2022-12-17T16:41:01.874Z,102635.13
2022-12-17T16:43:32.860Z,102634.28
2022-12-17T16:45:59.687Z,102641.97
2022-12-17T16:48:26.457Z,102634.88
2022-12-17T16:50:53.064Z,102635.78
2022-12-17T16:53:20.364Z,102634.13
2022-12-17T16:55:49.452Z,102624.59
2022-12-17T16:58:17.837Z,102597.03
2022-12-17T17:00:46.496Z,102604.75
2022-12-17T17:03:13.704Z,102597.16
2022-12-17T17:05:40.818Z,102600.66
2022-12-17T17:08:07.655Z,102612.75
2022-12-17T17:10:36.644Z,102619.59
2022-12-17T17:13:04.064Z,102626.47
2022-12-17T17:15:32.407Z,102626.56
2022-12-17T17:18:02.102Z,102643.16
2022-12-17T17:20:32.546Z,102638.84
2022-12-17T17:22:59.806Z,102557.81
2022-12-17T17:25:43.886Z,102505.28
2022-12-17T17:28:13.755Z,102594.94
2022-12-17T17:30:40.492Z,102638.94
2022-12-17T17:33:07.210Z,102638.91
2022-12-17T17:35:34.010Z,102610.41
2022-12-17T17:38:01.011Z,102639.72
2022-12-17T17:40:27.660Z,102642.38
2022-12-17T17:42:54.405Z,102601.16
2022-12-17T17:45:21.228Z,102637.47
2022-12-17T17:47:47.911Z,102640.13
2022-12-17T17:50:14.952Z,102641.78
2022-12-17T17:52:41.558Z,102634.09
2022-12-17T17:55:09.113Z,102600.47
2022-12-17T17:57:36.002Z,102626.38
2022-12-17T18:00:02.855Z,102647.88
2022-12-17T18:02:29.794Z,102651.38
2022-12-17T18:04:59.521Z,102572.19
2022-12-17T18:07:27.352Z,102653.31
2022-12-17T18:09:55.144Z,102643.94
2022-12-17T18:12:41.225Z,102668.84
2022-12-17T18:15:17.255Z,102644.56
2022-12-17T18:17:50.320Z,102659.28
2022-12-17T18:20:17.263Z,102672.28
2022-12-17T18:22:46.340Z,102649.03
2022-12-17T18:25:13.772Z,102672.22
2022-12-17T18:27:40.496Z,102663.56
2022-12-17T18:30:07.688Z,102642.97
2022-12-17T18:32:34.879Z,102671.44
2022-12-17T18:35:01.523Z,102676.47
2022-12-17T18:37:28.252Z,102683.31
2022-12-17T18:39:55.092Z,102675.53
2022-12-17T18:42:40.545Z,102670.41
2022-12-17T18:45:07.831Z,102681.69
2022-12-17T18:47:34.521Z,102673.78
2022-12-17T18:50:01.099Z,102685.75
2022-12-17T18:52:28.037Z,102681.56
2022-12-17T18:54:54.714Z,102679.97
2022-12-17T18:57:21.421Z,102686.03
2022-12-17T18:59:49.052Z,102692.78
2022-12-17T19:02:16.041Z,102696.22
2022-12-17T19:04:43.331Z,102685.22
2022-12-17T19:07:10.473Z,102695.53
2022-12-17T19:09:39.463Z,102675.69
2022-12-17T19:12:09.244Z,102701.38
2022-12-17T19:14:36.895Z,102709.28
2022-12-17T19:17:05.129Z,102663.69
2022-12-17T19:19:33.129Z,102713.56
2022-12-17T19:22:00.550Z,102707.44
2022-12-17T19:24:27.778Z,102678.91
2022-12-17T19:26:54.873Z,102707.50
2022-12-17T19:29:22.357Z,102708.47
2022-12-17T19:31:49.601Z,102684.38
2022-12-17T19:34:17.789Z,102715.28
2022-12-17T19:36:45.359Z,102714.50
2022-12-17T19:39:14.789Z,102715.44
2022-12-17T19:41:41.444Z,102714.66
2022-12-17T19:44:12.827Z,102702.69
2022-12-17T19:46:39.560Z,102696.63
2022-12-17T19:49:06.449Z,102712.22
2022-12-17T19:51:34.007Z,102719.19
2022-12-17T19:54:08.108Z,102718.31
2022-12-17T19:56:36.007Z,102740.72
2022-12-17T19:59:07.501Z,102726.84
2022-12-17T20:01:37.151Z,102702.78
2022-12-17T20:04:04.553Z,102689.81
2022-12-17T20:06:33.499Z,102730.28
2022-12-17T20:09:02.174Z,102736.25
2022-12-17T20:11:35.374Z,102698.34
2022-12-17T20:14:05.132Z,102732.91
2022-12-17T20:16:35.207Z,102720.13
2022-12-17T20:19:03.178Z,102714.00
2022-12-17T20:21:30.044Z,102724.25
2022-12-17T20:23:56.799Z,102725.25
2022-12-17T20:26:24.541Z,102735.78
2022-12-17T20:28:51.788Z,102731.56
2022-12-17T20:31:18.637Z,102722.91
2022-12-17T20:33:45.690Z,102733.31
2022-12-17T20:36:16.115Z,102748.13
2022-12-17T20:38:43.448Z,102740.38
2022-12-17T20:41:14.614Z,102735.19
2022-12-17T20:43:42.188Z,102739.44
2022-12-17T20:46:10.391Z,102717.03
2022-12-17T20:48:39.336Z,102721.38
2022-12-17T20:51:18.075Z,102731.78
2022-12-17T20:53:45.498Z,102739.53
2022-12-17T20:56:16.080Z,102692.03
2022-12-17T20:58:43.413Z,102750.84
2022-12-17T21:01:12.103Z,102746.53
2022-12-17T21:03:39.602Z,102754.34
2022-12-17T21:06:11.953Z,102736.16
2022-12-17T21:08:43.427Z,102697.28
2022-12-17T21:11:21.887Z,102716.38
2022-12-17T21:13:48.896Z,102749.25
2022-12-17T21:16:22.020Z,102763.03
2022-12-17T21:18:49.057Z,102619.72
2022-12-17T21:21:19.097Z,102771.63
2022-12-17T21:23:48.105Z,102744.91
2022-12-17T21:26:21.358Z,102768.22
2022-12-17T21:28:51.727Z,102764.63
2022-12-17T21:31:20.015Z,102768.06
2022-12-17T21:33:50.482Z,102771.69
2022-12-17T21:36:20.090Z,102764.75
2022-12-17T21:38:47.824Z,102788.09
2022-12-17T21:41:25.221Z,102750.13
2022-12-17T21:44:04.135Z,102789.81
2022-12-17T21:46:31.274Z,102774.28
2022-12-17T21:49:00.338Z,102786.38
2022-12-17T21:51:28.520Z,102738.91
2022-12-17T21:53:58.235Z,102788.16
2022-12-17T21:56:25.289Z,102766.66
2022-12-17T21:59:00.221Z,102785.72
2022-12-17T22:01:32.041Z,102796.09
2022-12-17T22:04:02.053Z,102788.31
2022-12-17T22:06:32.652Z,102780.53
2022-12-17T22:09:16.551Z,102762.34
2022-12-17T22:12:15.222Z,102776.88
2022-12-17T22:14:42.116Z,102704.34
2022-12-17T22:17:08.938Z,102768.28
2022-12-17T22:19:37.106Z,102780.44
2022-12-17T22:22:04.143Z,102790.84
2022-12-17T22:24:34.827Z,102770.25
2022-12-17T22:27:03.421Z,102799.75
2022-12-17T22:29:49.191Z,102799.72
2022-12-17T22:32:34.634Z,102816.03
2022-12-17T22:36:13.494Z,102808.28
2022-12-17T22:40:20.639Z,102801.41
2022-12-17T22:44:29.672Z,102826.50
2022-12-17T22:44:41.151Z,102789.34
2022-12-17T22:46:18.211Z,102791.09
2022-12-17T22:48:45.427Z,102830.81
2022-12-17T22:51:19.636Z,102799.56
2022-12-17T22:54:02.952Z,102815.94
2022-12-17T22:57:02.244Z,102828.13
2022-12-17T22:59:19.305Z,102784.16
2022-12-17T23:01:46.469Z,102811.69
2022-12-17T23:04:15.749Z,102821.19
2022-12-17T23:06:45.457Z,102812.56
2022-12-17T23:09:19.456Z,102822.16
2022-12-17T23:11:48.499Z,102814.44
2022-12-17T23:14:15.498Z,102814.50
2022-12-17T23:16:43.126Z,102809.34
2022-12-17T23:19:10.511Z,102774.84
2022-12-17T23:21:37.938Z,102761.00
2022-12-17T23:24:05.394Z,102813.72
2022-12-17T23:26:34.823Z,102812.88
2022-12-17T23:29:08.492Z,102810.31
2022-12-17T23:31:40.150Z,102785.34
2022-12-17T23:34:07.725Z,102810.38
2022-12-17T23:36:35.382Z,102804.31
2022-12-17T23:39:05.588Z,102820.78
2022-12-17T23:41:32.668Z,102777.59
2022-12-17T23:43:59.900Z,102781.91
2022-12-17T23:46:28.696Z,102809.56
2022-12-17T23:48:55.691Z,102822.47
2022-12-17T23:51:24.333Z,102825.06
2022-12-17T23:53:51.273Z,102827.69
2022-12-17T23:56:26.356Z,102823.34
2022-12-17T23:59:02.972Z,102779.28
